Home > Products > Valid Products > TAF

000
FTUS45 KBOU 230906 AAB
TAFAPA
TAF AMD
KAPA 230906Z 2309/2406 13003KT P6SM SCT220
     FM231000 23005KT P6SM SCT200
     FM231600 VRB05KT P6SM FEW140 SCT220
     FM231900 10007KT P6SM FEW120 SCT220
     FM240200 18008KT P6SM FEW120 BKN220=



000
FTUS45 KBOU 230906 AAB
TAFBJC
TAF AMD
KBJC 230906Z 2309/2406 24004KT P6SM SCT200
     FM231600 VRB05KT P6SM FEW140 SCT220
     FM231900 09007KT P6SM FEW120 SCT220
     FM240200 24006KT P6SM FEW120 BKN220=



000
FTUS45 KBOU 230906 AAB
TAFDEN
TAF AMD
KDEN 230906Z 2309/2412 24008KT P6SM FEW100 SCT220
     FM231500 VRB05KT P6SM FEW120 BKN220
     FM231900 11006KT P6SM FEW120 SCT220
     FM240200 19008KT P6SM FEW120 SCT220
     FM240600 21010KT P6SM FEW130 BKN220=



000
FTUS45 KBOU 230630 AAA
TAFDEN
TAF AMD
KDEN 230630Z 2307/2412 22008KT P6SM FEW100 SCT200
     FM231500 VRB05KT P6SM FEW120 BKN220
     FM231900 08007KT P6SM FEW120 SCT220
     FM240200 19008KT P6SM FEW120 SCT220
     FM240500 21012KT P6SM FEW130 BKN220=



000
FTUS45 KBOU 230630 AAA
TAFAPA
TAF AMD
KAPA 230630Z 2307/2406 14004KT P6SM BKN140
     FM230700 24006KT P6SM FEW140 BKN220
     FM231600 VRB05KT P6SM FEW140 BKN220
     FM231900 09007KT P6SM FEW120 SCT220
     FM240200 18008KT P6SM FEW120 BKN220=



000
FTUS45 KBOU 230630 AAA
TAFBJC
TAF AMD
KBJC 230630Z 2307/2406 33013KT P6SM FEW120 BKN220
     FM230800 28008KT P6SM FEW120 BKN220
     FM231600 VRB05KT P6SM FEW140 BKN220
     FM231900 09007KT P6SM FEW120 SCT220
     FM240200 24006KT P6SM FEW120 BKN220=



000
FTUS45 KBOU 230527
TAFAPA
TAF
KAPA 230527Z 2306/2406 14004KT P6SM BKN140
     FM230700 24006KT P6SM FEW140 BKN220
     FM231600 VRB05KT P6SM FEW140 BKN220
     FM231900 09007KT P6SM FEW120 SCT220
     FM240200 18008KT P6SM FEW120 BKN220=



000
FTUS45 KBOU 230527
TAFBJC
TAF
KBJC 230527Z 2306/2406 27010KT P6SM FEW120 BKN220
     FM231600 VRB05KT P6SM FEW140 BKN220
     FM231900 09007KT P6SM FEW120 SCT220
     FM240200 24006KT P6SM FEW120 BKN220=



000
FTUS45 KBOU 230527
TAFDEN
TAF
KDEN 230527Z 2306/2412 22008KT P6SM FEW100 SCT200
     FM231500 VRB05KT P6SM FEW120 BKN220
     FM231900 08007KT P6SM FEW120 SCT220
     FM240200 19008KT P6SM FEW120 SCT220
     FM240500 21012KT P6SM FEW130 BKN220=



000
FTUS45 KBOU 230306 AAA
TAFDEN
TAF AMD
KDEN 230306Z 2303/2406 17008KT P6SM FEW100 SCT220
     FM230500 20007KT P6SM FEW140 SCT220
     FM231700 16007KT P6SM SCT220
     FM231900 03008KT P6SM FEW120 SCT220=



000
FTUS45 KBOU 222341
TAFBJC
TAF
KBJC 222341Z 2300/2324 36006KT P6SM VCSH FEW060 BKN090 BKN220
     FM230200 24006KT P6SM SCT080 BKN220
     FM230500 31007KT P6SM FEW100 SCT220
     FM231500 VRB05KT P6SM SCT220
     FM231900 03006KT P6SM FEW120 SCT220=



000
FTUS45 KBOU 222341
TAFAPA
TAF
KAPA 222341Z 2300/2324 32008KT P6SM VCSH SCT100 BKN220
     FM230200 13006KT P6SM SCT080 BKN220
     FM230500 19007KT P6SM FEW100 SCT220
     FM231700 15007KT P6SM SCT220
     FM231900 04007KT P6SM FEW120 SCT220=



000
FTUS45 KBOU 222341
TAFDEN
TAF
KDEN 222341Z 2300/2406 33010KT P6SM VCSH FEW060 BKN090 BKN220
     FM230200 13006KT P6SM SCT080 BKN220
     FM230500 20007KT P6SM FEW100 SCT220
     FM231700 16007KT P6SM SCT220
     FM231900 03008KT P6SM FEW120 SCT220=



000
FTUS45 KBOU 222320
TAFDEN
TAF
KDEN 222320Z 2300/2406 36006KT P6SM FEW060 SCT100 BKN200
     FM230100 14006KT P6SM SCT080 BKN200
     FM230500 20007KT P6SM SCT100 BKN200
     FM231800 16007KT P6SM SCT200=



000
FTUS45 KBOU 222154 AAA
TAFDEN
TAF AMD
KDEN 222154Z 2222/2324 VRB06KT P6SM VCSH FEW070 SCT120 BKN200
     FM222245 31014G24KT P6SM VCSH FEW060 SCT120 BKN200
     FM230100 14006KT P6SM SCT080 BKN200
     FM230500 20007KT P6SM SCT100 BKN200
     FM231800 16007KT P6SM SCT200=



000
FTUS45 KBOU 221725
TAFAPA
TAF
KAPA 221725Z 2218/2318 13007KT P6SM SCT070 BKN140
     FM230000 15006KT P6SM SCT080 BKN200
     FM230400 19007KT P6SM SCT100 BKN200=



000
FTUS45 KBOU 221725
TAFBJC
TAF
KBJC 221725Z 2218/2318 14007KT P6SM SCT060 BKN140
     FM230000 16006KT P6SM SCT080 BKN200
     FM230300 24007KT P6SM SCT100 BKN200=



000
FTUS45 KBOU 221725
TAFBJC
TAF
KBJC 221725Z 2218/2318 14007KT P6SM SCT060 BKN140
     FM230000 16006KT P6SM SCT080 BKN200
     FM230300 24007KT P6SM SCT100 BKN200=



000
FTUS45 KBOU 221725
TAFDEN
TAF
KDEN 221725Z 2218/2324 11007KT P6SM SCT080 BKN140
     FM230100 14006KT P6SM SCT080 BKN200
     FM230500 20007KT P6SM SCT100 BKN200
     FM231800 16007KT P6SM SCT200=



000
FTUS45 KBOU 221725
TAFAPA
TAF
KAPA 221725Z 2218/2318 13007KT P6SM SCT070 BKN140
     FM230000 15006KT P6SM SCT080 BKN200
     FM230400 19007KT P6SM SCT100 BKN200=



000
FTUS45 KBOU 221725
TAFDEN
TAF
KDEN 221725Z 2218/2324 11007KT P6SM SCT080 BKN140
     FM230100 14006KT P6SM SCT080 BKN200
     FM230500 20007KT P6SM SCT100 BKN200
     FM231800 16007KT P6SM SCT200=



000
FTUS45 KBOU 221459 AAB
TAFDEN
TAF AMD
KDEN 221459Z 2215/2318 16008KT P6SM FEW080 BKN150
     FM221800 11007KT P6SM VCSH SCT060 BKN140
     FM230100 14006KT P6SM SCT080 BKN200
     FM230500 20007KT P6SM SCT100 BKN200=



000
FTUS45 KBOU 221204 AAA
TAFDEN
TAF AMD
KDEN 221204Z 2212/2318 15009KT P6SM FEW080 BKN150
     FM221500 VRB06KT P6SM FEW080 BKN150
     FM221900 11007KT P6SM VCSH SCT060 BKN140
     FM230100 14006KT P6SM SCT080 BKN200
     FM230500 20007KT P6SM SCT100 BKN200=



000
FTUS45 KBOU 221125
TAFBJC
TAF
KBJC 221125Z 2212/2312 VRB06KT P6SM FEW080 BKN150
     FM221700 10007KT P6SM VCSH SCT060 BKN140
     FM230000 16006KT P6SM SCT080 BKN200
     FM230300 24007KT P6SM SCT100 BKN200=



000
FTUS45 KBOU 221125
TAFAPA
TAF
KAPA 221125Z 2212/2312 26005KT P6SM FEW080 BKN150
     FM221500 VRB06KT P6SM SCT080 BKN150
     FM221800 12007KT P6SM VCSH SCT060 BKN140
     FM230000 15006KT P6SM SCT080 BKN200
     FM230400 19007KT P6SM SCT100 BKN200=



000
FTUS45 KBOU 221125
TAFDEN
TAF
KDEN 221125Z 2212/2318 23009KT P6SM FEW080 BKN150
     FM221500 VRB06KT P6SM FEW080 BKN150
     FM221900 11007KT P6SM VCSH SCT060 BKN140
     FM230100 14006KT P6SM SCT080 BKN200
     FM230500 20007KT P6SM SCT100 BKN200=



000
FTUS45 KBOU 220945 AAC
TAFDEN
TAF AMD
KDEN 220945Z 2210/2312 02009KT P6SM FEW080 BKN150
     FM221100 VRB06KT P6SM FEW080 BKN150
     FM221900 10007KT P6SM VCSH SCT060 BKN140
     FM230000 13006KT P6SM SCT080 BKN200
     FM230300 20007KT P6SM SCT100 BKN200=



000
FTUS45 KBOU 220945 AAC
TAFDEN
TAF AMD
KDEN 220945Z 2210/2312 02009KT P6SM FEW080 BKN150
     FM221100 VRB06KT P6SM FEW080 BKN150
     FM221900 10007KT P6SM VCSH SCT060 BKN140
     FM230000 13006KT P6SM SCT080 BKN200
     FM230300 20007KT P6SM SCT100 BKN200=



000
FTUS45 KBOU 220817 AAB
TAFDEN
TAF AMD
KDEN 220817Z 2208/2312 34011KT P6SM BKN080 OVC120
     FM221000 VRB06KT P6SM SCT080 BKN120
     FM221100 21009KT P6SM SCT120 BKN200
     FM221500 VRB06KT P6SM SCT080 BKN150
     FM221900 10007KT P6SM VCSH SCT060 BKN140
     FM230000 13006KT P6SM SCT080 BKN200
     FM230300 20007KT P6SM SCT100 BKN200=



000
FTUS45 KBOU 220710 AAA
TAFDEN
TAF AMD
KDEN 220710Z 2207/2312 27009KT P6SM VCSH OVC070
     FM220725 16008KT P6SM VCSH OVC070
     FM220800 19007KT P6SM VCSH SCT080 BKN150
     FM221000 21009KT P6SM SCT120 BKN200
     FM221500 VRB06KT P6SM SCT080 BKN150
     FM221900 10007KT P6SM VCSH SCT060 BKN140
     FM230000 13006KT P6SM SCT080 BKN200
     FM230300 20007KT P6SM SCT100 BKN200=



000
FTUS45 KBOU 220527
TAFDEN
TAF
KDEN 220527Z 2206/2312 31010KT P6SM VCSH SCT080 OVC140
      TEMPO 2206/2208 30015G25KT -SHRA BKN080
     FM220800 24007KT P6SM VCSH SCT080 BKN150
     FM221000 21009KT P6SM SCT120 BKN200
     FM221500 VRB06KT P6SM SCT080 BKN150
     FM221900 10007KT P6SM VCSH SCT060 BKN140
     FM230000 13006KT P6SM SCT080 BKN200
     FM230300 20007KT P6SM SCT100 BKN200=



000
FTUS45 KBOU 220527
TAFAPA
TAF
KAPA 220527Z 2206/2306 34006KT P6SM VCSH BKN100 OVC200
      TEMPO 2206/2208 31015G25KT -SHRA BKN080
     FM220800 20008KT P6SM SCT120 BKN200
     FM221500 VRB06KT P6SM SCT080 BKN150
     FM221900 10007KT P6SM VCSH SCT060 BKN140
     FM230000 13006KT P6SM SCT080 BKN200
     FM230300 20007KT P6SM SCT100 BKN200=



000
FTUS45 KBOU 220527
TAFBJC
TAF
KBJC 220527Z 2206/2306 31007KT P6SM VCSH BKN080 BKN200
     FM220800 30006KT P6SM SCT100 BKN200
     FM221500 VRB06KT P6SM SCT080 BKN150
     FM221900 10007KT P6SM VCSH SCT060 BKN140
     FM230000 13006KT P6SM SCT080 BKN200
     FM230300 24007KT P6SM SCT100 BKN200=



000
FTUS45 KBOU 220527
TAFDEN
TAF
KDEN 220527Z 2206/2312 31010KT P6SM VCSH SCT080 OVC140
      TEMPO 2206/2208 30015G25KT -SHRA BKN080
     FM220800 24007KT P6SM VCSH SCT080 BKN150
     FM221000 21009KT P6SM SCT120 BKN200
     FM221500 VRB06KT P6SM SCT080 BKN150
     FM221900 10007KT P6SM VCSH SCT060 BKN140
     FM230000 13006KT P6SM SCT080 BKN200
     FM230300 20007KT P6SM SCT100 BKN200=



000
FTUS45 KBOU 220527
TAFAPA
TAF
KAPA 220527Z 2206/2306 34006KT P6SM VCSH BKN100 OVC200
      TEMPO 2206/2208 31015G25KT -SHRA BKN080
     FM220800 20008KT P6SM SCT120 BKN200
     FM221500 VRB06KT P6SM SCT080 BKN150
     FM221900 10007KT P6SM VCSH SCT060 BKN140
     FM230000 13006KT P6SM SCT080 BKN200
     FM230300 20007KT P6SM SCT100 BKN200=



000
FTUS45 KBOU 220527
TAFBJC
TAF
KBJC 220527Z 2206/2306 31007KT P6SM VCSH BKN080 BKN200
     FM220800 30006KT P6SM SCT100 BKN200
     FM221500 VRB06KT P6SM SCT080 BKN150
     FM221900 10007KT P6SM VCSH SCT060 BKN140
     FM230000 13006KT P6SM SCT080 BKN200
     FM230300 24007KT P6SM SCT100 BKN200=



000
FTUS45 KBOU 220405 AAA
TAFBJC
TAF AMD
KBJC 220405Z 2204/2224 29020G30KT P6SM VCSH SCT090 BKN120
     FM220600 30011KT P6SM FEW090 BKN150
     FM221100 31006KT P6SM SCT080 SCT150
     FM221500 VRB06KT P6SM SCT080 BKN150
     FM221900 09007KT P6SM VCSH SCT060 BKN140=



000
FTUS45 KBOU 220405 AAA
TAFBJC
TAF AMD
KBJC 220405Z 2204/2224 29020G30KT P6SM VCSH SCT090 BKN120
     FM220600 30011KT P6SM FEW090 BKN150
     FM221100 31006KT P6SM SCT080 SCT150
     FM221500 VRB06KT P6SM SCT080 BKN150
     FM221900 09007KT P6SM VCSH SCT060 BKN140=



000
FTUS45 KBOU 220333 AAD
TAFDEN
TAF AMD
KDEN 220333Z 2204/2306 28014KT P6SM FEW100 BKN130
      TEMPO 2204/2205 29020G32KT
     FM220500 24007KT P6SM VCSH SCT080 BKN150
     FM220900 31009KT P6SM SCT080 SCT150
     FM221500 VRB06KT P6SM SCT080 BKN150
     FM221900 10007KT P6SM VCSH SCT060 BKN140=



000
FTUS45 KBOU 220307 AAC
TAFDEN
TAF AMD
KDEN 220307Z 2203/2306 32011KT P6SM FEW100 BKN130
     FM220500 24007KT P6SM VCSH SCT080 BKN150
     FM220900 31009KT P6SM SCT080 SCT150
     FM221500 VRB06KT P6SM SCT080 BKN150
     FM221900 10007KT P6SM VCSH SCT060 BKN140=



000
FTUS45 KBOU 220155 AAB
TAFDEN
TAF AMD
KDEN 220155Z 2202/2306 33008KT P6SM FEW080 BKN120
     FM220400 24007KT P6SM VCSH SCT080 BKN150
     FM220900 31009KT P6SM SCT080 SCT150
     FM221500 VRB06KT P6SM SCT080 BKN150
     FM221900 10007KT P6SM VCSH SCT060 BKN140=



000
FTUS45 KBOU 220155 AAB
TAFDEN
TAF AMD
KDEN 220155Z 2202/2306 33008KT P6SM FEW080 BKN120
     FM220400 24007KT P6SM VCSH SCT080 BKN150
     FM220900 31009KT P6SM SCT080 SCT150
     FM221500 VRB06KT P6SM SCT080 BKN150
     FM221900 10007KT P6SM VCSH SCT060 BKN140=



000
FTUS45 KBOU 220019 AAA
TAFDEN
TAF AMD
KDEN 220019Z 2200/2306 17012KT P6SM BKN100 BKN200
     FM220115 32012KT P6SM SCT080 BKN120
     FM220400 24007KT P6SM VCSH SCT080 BKN150
     FM220900 31009KT P6SM SCT080 SCT150
     FM221500 VRB06KT P6SM SCT080 BKN150
     FM221900 10007KT P6SM VCSH SCT060 BKN140=



000
FTUS45 KBOU 212340
TAFBJC
TAF
KBJC 212340Z 2200/2224 29008KT P6SM SCT070 BKN180
     FM220300 30007KT P6SM VCSH SCT070 BKN150
     FM221100 31006KT P6SM SCT080 SCT150
     FM221500 VRB06KT P6SM SCT080 BKN150
     FM221900 09007KT P6SM VCSH SCT060 BKN140=



000
FTUS45 KBOU 212340
TAFDEN
TAF
KDEN 212340Z 2200/2306 17012KT P6SM BKN100 BKN200
     FM220200 32006KT P6SM SCT080 BKN120
     FM220400 24007KT P6SM VCSH SCT080 BKN150
     FM220900 31009KT P6SM SCT080 SCT150
     FM221500 VRB06KT P6SM SCT080 BKN150
     FM221900 10007KT P6SM VCSH SCT060 BKN140=



000
FTUS45 KBOU 212340
TAFAPA
TAF
KAPA 212340Z 2200/2224 07006KT P6SM BKN100 BKN200
     FM220300 24007KT P6SM VCSH SCT080 BKN150
     FM220900 30009KT P6SM SCT080 SCT150
     FM221500 VRB06KT P6SM SCT080 BKN150
     FM221900 09007KT P6SM VCSH SCT060 BKN140=



000
FTUS45 KBOU 212259 AAB
TAFBJC
TAF AMD
KBJC 212259Z 2123/2218 28009KT P6SM SCT080 BKN150
     FM220300 30007KT P6SM VCSH SCT070 BKN150
     FM221100 31006KT P6SM SCT080 SCT150=



000
FTUS45 KBOU 212259 AAC
TAFAPA
TAF AMD
KAPA 212259Z 2123/2218 02007KT P6SM SCT080 BKN150
     FM220400 24008KT P6SM VCSH SCT080 BKN150
     FM221100 31008KT P6SM SCT080 SCT150
     FM221400 VRB05KT P6SM SCT080 SCT150=



000
FTUS45 KBOU 212259 AAB
TAFBJC
TAF AMD
KBJC 212259Z 2123/2218 28009KT P6SM SCT080 BKN150
     FM220300 30007KT P6SM VCSH SCT070 BKN150
     FM221100 31006KT P6SM SCT080 SCT150=



000
FTUS45 KBOU 212259 AAC
TAFAPA
TAF AMD
KAPA 212259Z 2123/2218 02007KT P6SM SCT080 BKN150
     FM220400 24008KT P6SM VCSH SCT080 BKN150
     FM221100 31008KT P6SM SCT080 SCT150
     FM221400 VRB05KT P6SM SCT080 SCT150=



000
FTUS45 KBOU 212256 AAC
TAFDEN
TAF AMD
KDEN 212256Z 2123/2224 19020KT P6SM VCSH BKN100 BKN180
     FM212330 35005KT P6SM SCT080 BKN120
     FM220400 23007KT P6SM VCSH SCT080 BKN150
     FM221000 33008KT P6SM SCT080 SCT150
     FM221500 13008KT P6SM SCT080 SCT150
     FM221900 11007KT P6SM VCSH SCT070 BKN150=



000
FTUS45 KBOU 212256 AAC
TAFDEN
TAF AMD
KDEN 212256Z 2123/2224 19020KT P6SM VCSH BKN100 BKN180
     FM212330 35005KT P6SM SCT080 BKN120
     FM220400 23007KT P6SM VCSH SCT080 BKN150
     FM221000 33008KT P6SM SCT080 SCT150
     FM221500 13008KT P6SM SCT080 SCT150
     FM221900 11007KT P6SM VCSH SCT070 BKN150=



000
FTUS45 KBOU 212114 AAA
TAFBJC
TAF AMD
KBJC 212114Z 2121/2218 05005KT P6SM SCT090 BKN180
     FM212200 28009KT P6SM SCT070 BKN120
      TEMPO 2123/2203 -SHRA SCT060 BKN080
     FM220300 30007KT P6SM VCSH SCT070 BKN150
     FM221100 31006KT P6SM SCT080 SCT150=



000
FTUS45 KBOU 212114 AAB
TAFAPA
TAF AMD
KAPA 212114Z 2121/2218 VRB05KT P6SM FEW090 SCT120 BKN220
     FM212200 30007KT P6SM SCT070 BKN120
      TEMPO 2200/2204 -SHRA SCT060 BKN080
     FM220400 24008KT P6SM VCSH SCT080 BKN150
     FM221100 31008KT P6SM SCT080 SCT150
     FM221400 VRB05KT P6SM SCT080 SCT150=



000
FTUS45 KBOU 212109 AAB
TAFDEN
TAF AMD
KDEN 212109Z 2121/2224 08005KT P6SM FEW090 SCT120 BKN250
     FM212230 29010KT P6SM SCT070 BKN120
      TEMPO 2200/2204 -SHRA SCT060 BKN080
     FM220400 23007KT P6SM VCSH SCT080 BKN150
     FM221000 33008KT P6SM SCT080 SCT150
     FM221500 13008KT P6SM SCT080 SCT150
     FM221900 11007KT P6SM VCSH SCT070 BKN150=



000
FTUS45 KBOU 211856 AAA
TAFAPA
TAF AMD
KAPA 211856Z 2119/2218 VRB05KT P6SM FEW140 SCT200
     FM212000 34006KT P6SM SCT080 BKN150
     FM212300 30010KT P6SM SCT070 BKN120
      TEMPO 2200/2204 -SHRA SCT060 BKN080
     FM220400 24008KT P6SM VCSH SCT080 BKN150
     FM221100 31008KT P6SM SCT080 SCT150
     FM221400 VRB05KT P6SM SCT080 SCT150=



000
FTUS45 KBOU 211852 AAA
TAFDEN
TAF AMD
KDEN 211852Z 2119/2224 VRB05KT P6SM FEW100 SCT120
     FM212100 03006KT P6SM SCT080 BKN120
     FM212300 27010KT P6SM SCT070 BKN120
      TEMPO 2200/2204 -SHRA SCT060 BKN080
     FM220400 23007KT P6SM VCSH SCT080 BKN150
     FM221000 33008KT P6SM SCT080 SCT150
     FM221500 13008KT P6SM SCT080 SCT150
     FM221900 11007KT P6SM VCSH SCT070 BKN150=



000
FTUS45 KBOU 211735
TAFBJC
TAF
KBJC 211735Z 2118/2218 VRB05KT P6SM FEW140 SCT200
     FM211900 08007KT P6SM SCT080 BKN140
     FM212200 28011KT P6SM SCT070 BKN120
      TEMPO 2123/2203 -SHRA SCT060 BKN080
     FM220300 30007KT P6SM VCSH SCT070 BKN150
     FM221100 31006KT P6SM SCT080 SCT150=



000
FTUS45 KBOU 211735
TAFAPA
TAF
KAPA 211735Z 2118/2218 20006KT P6SM FEW140 SCT200
     FM211900 15006KT P6SM SCT080 BKN150
     FM220000 29011KT P6SM SCT070 BKN120
      TEMPO 2200/2204 -SHRA SCT060 BKN080
     FM220400 24008KT P6SM VCSH SCT080 BKN150
     FM221100 31008KT P6SM SCT080 SCT150
     FM221400 VRB05KT P6SM SCT080 SCT150=



000
FTUS45 KBOU 211735
TAFDEN
TAF
KDEN 211735Z 2118/2224 22006KT P6SM FEW100 SCT120
     FM211900 16006KT P6SM SCT080 BKN120
     FM212300 27010KT P6SM SCT070 BKN120
      TEMPO 2200/2204 -SHRA SCT060 BKN080
     FM220400 23007KT P6SM VCSH SCT080 BKN150
     FM221000 33008KT P6SM SCT080 SCT150
     FM221500 13008KT P6SM SCT080 SCT150
     FM221900 11007KT P6SM VCSH SCT070 BKN150=



000
FTUS45 KBOU 211611 AAA
TAFAPA
TAF AMD
KAPA 211611Z 2116/2212 20010KT P6SM FEW140 SCT200
     FM211800 18006KT P6SM FEW140 SCT200
     FM211900 15006KT P6SM SCT080 BKN150
     FM220000 29011KT P6SM SCT070 BKN120
      TEMPO 2200/2204 -SHRA SCT060 BKN080
     FM220400 31011KT P6SM SCT080 BKN150
     FM220700 19009KT P6SM SCT080 BKN150=



000
FTUS45 KBOU 211611 AAA
TAFAPA
TAF AMD
KAPA 211611Z 2116/2212 20010KT P6SM FEW140 SCT200
     FM211800 18006KT P6SM FEW140 SCT200
     FM211900 15006KT P6SM SCT080 BKN150
     FM220000 29011KT P6SM SCT070 BKN120
      TEMPO 2200/2204 -SHRA SCT060 BKN080
     FM220400 31011KT P6SM SCT080 BKN150
     FM220700 19009KT P6SM SCT080 BKN150=



000
FTUS45 KBOU 211611 AAA
TAFAPA
TAF AMD
KAPA 211611Z 2116/2212 20010KT P6SM FEW140 SCT200
     FM211800 18006KT P6SM FEW140 SCT200
     FM211900 15006KT P6SM SCT080 BKN150
     FM220000 29011KT P6SM SCT070 BKN120
      TEMPO 2200/2204 -SHRA SCT060 BKN080
     FM220400 31011KT P6SM SCT080 BKN150
     FM220700 19009KT P6SM SCT080 BKN150=



000
FTUS45 KBOU 211608 AAB
TAFDEN
TAF AMD
KDEN 211608Z 2116/2218 21006KT P6SM FEW100 SCT120
     FM211900 16006KT P6SM SCT080 BKN120
     FM212300 27010KT P6SM SCT070 BKN120
      TEMPO 2200/2204 -SHRA SCT060 BKN080
     FM220400 33011KT P6SM SCT080 BKN150
     FM220700 23010KT P6SM SCT080 BKN150=



000
FTUS45 KBOU 211608 AAB
TAFDEN
TAF AMD
KDEN 211608Z 2116/2218 21006KT P6SM FEW100 SCT120
     FM211900 16006KT P6SM SCT080 BKN120
     FM212300 27010KT P6SM SCT070 BKN120
      TEMPO 2200/2204 -SHRA SCT060 BKN080
     FM220400 33011KT P6SM SCT080 BKN150
     FM220700 23010KT P6SM SCT080 BKN150=



000
FTUS45 KBOU 211608 AAB
TAFDEN
TAF AMD
KDEN 211608Z 2116/2218 21006KT P6SM FEW100 SCT120
     FM211900 16006KT P6SM SCT080 BKN120
     FM212300 27010KT P6SM SCT070 BKN120
      TEMPO 2200/2204 -SHRA SCT060 BKN080
     FM220400 33011KT P6SM SCT080 BKN150
     FM220700 23010KT P6SM SCT080 BKN150=



000
FTUS45 KBOU 211608 AAB
TAFDEN
TAF AMD
KDEN 211608Z 2116/2218 21006KT P6SM FEW100 SCT120
     FM211900 16006KT P6SM SCT080 BKN120
     FM212300 27010KT P6SM SCT070 BKN120
      TEMPO 2200/2204 -SHRA SCT060 BKN080
     FM220400 33011KT P6SM SCT080 BKN150
     FM220700 23010KT P6SM SCT080 BKN150=



000
FTUS45 KBOU 211456 AAA
TAFDEN
TAF AMD
KDEN 211456Z 2115/2218 23010KT P6SM FEW100 SCT120
     FM211600 18006KT P6SM FEW100 SCT120
     FM211900 16006KT P6SM SCT080 BKN120
     FM212300 27010KT P6SM SCT070 BKN120 PROB30 2200/2204 -SHRA
      SCT060 BKN080
     FM220400 33011KT P6SM SCT080 BKN150
     FM220700 23010KT P6SM SCT080 BKN150=



000
FTUS45 KBOU 211456 AAA
TAFDEN
TAF AMD
KDEN 211456Z 2115/2218 23010KT P6SM FEW100 SCT120
     FM211600 18006KT P6SM FEW100 SCT120
     FM211900 16006KT P6SM SCT080 BKN120
     FM212300 27010KT P6SM SCT070 BKN120 PROB30 2200/2204 -SHRA
      SCT060 BKN080
     FM220400 33011KT P6SM SCT080 BKN150
     FM220700 23010KT P6SM SCT080 BKN150=



000
FTUS45 KBOU 211122
TAFAPA
TAF
KAPA 211122Z 2112/2212 20011KT P6SM FEW140
     FM211500 VRB06KT P6SM FEW140 SCT200
     FM211900 15009KT P6SM SCT080 BKN150
     FM220000 29011KT P6SM SCT070 BKN120 PROB30 2200/2204 -SHRA
      SCT060 BKN080
     FM220400 31011KT P6SM SCT080 BKN150
     FM220700 19009KT P6SM SCT080 BKN150=



000
FTUS45 KBOU 211122
TAFBJC
TAF
KBJC 211122Z 2112/2212 VRB05KT P6SM FEW140 SCT200
     FM211900 08007KT P6SM SCT080 BKN140
     FM212200 28011KT P6SM SCT070 BKN120 PROB30 2123/2203 -SHRA
      SCT060 BKN080
     FM220300 30011KT P6SM SCT070 BKN150=



000
FTUS45 KBOU 211122
TAFDEN
TAF
KDEN 211122Z 2112/2218 24010KT P6SM FEW140
     FM211500 VRB06KT P6SM FEW140 SCT200
     FM211900 16006KT P6SM SCT080 BKN150
     FM212300 27010KT P6SM SCT070 BKN120 PROB30 2200/2204 -SHRA
      SCT060 BKN080
     FM220400 33011KT P6SM SCT080 BKN150
     FM220700 23010KT P6SM SCT080 BKN150=



000
FTUS45 KBOU 211122
TAFAPA
TAF
KAPA 211122Z 2112/2212 20011KT P6SM FEW140
     FM211500 VRB06KT P6SM FEW140 SCT200
     FM211900 15009KT P6SM SCT080 BKN150
     FM220000 29011KT P6SM SCT070 BKN120 PROB30 2200/2204 -SHRA
      SCT060 BKN080
     FM220400 31011KT P6SM SCT080 BKN150
     FM220700 19009KT P6SM SCT080 BKN150=



000
FTUS45 KBOU 211122
TAFBJC
TAF
KBJC 211122Z 2112/2212 VRB05KT P6SM FEW140 SCT200
     FM211900 08007KT P6SM SCT080 BKN140
     FM212200 28011KT P6SM SCT070 BKN120 PROB30 2123/2203 -SHRA
      SCT060 BKN080
     FM220300 30011KT P6SM SCT070 BKN150=



000
FTUS45 KBOU 211122
TAFAPA
TAF
KAPA 211122Z 2112/2212 20011KT P6SM FEW140
     FM211500 VRB06KT P6SM FEW140 SCT200
     FM211900 15009KT P6SM SCT080 BKN150
     FM220000 29011KT P6SM SCT070 BKN120 PROB30 2200/2204 -SHRA
      SCT060 BKN080
     FM220400 31011KT P6SM SCT080 BKN150
     FM220700 19009KT P6SM SCT080 BKN150=



000
FTUS45 KBOU 211122
TAFDEN
TAF
KDEN 211122Z 2112/2218 24010KT P6SM FEW140
     FM211500 VRB06KT P6SM FEW140 SCT200
     FM211900 16006KT P6SM SCT080 BKN150
     FM212300 27010KT P6SM SCT070 BKN120 PROB30 2200/2204 -SHRA
      SCT060 BKN080
     FM220400 33011KT P6SM SCT080 BKN150
     FM220700 23010KT P6SM SCT080 BKN150=



000
FTUS45 KBOU 211122
TAFBJC
TAF
KBJC 211122Z 2112/2212 VRB05KT P6SM FEW140 SCT200
     FM211900 08007KT P6SM SCT080 BKN140
     FM212200 28011KT P6SM SCT070 BKN120 PROB30 2123/2203 -SHRA
      SCT060 BKN080
     FM220300 30011KT P6SM SCT070 BKN150=



000
FTUS45 KBOU 211122
TAFDEN
TAF
KDEN 211122Z 2112/2218 24010KT P6SM FEW140
     FM211500 VRB06KT P6SM FEW140 SCT200
     FM211900 16006KT P6SM SCT080 BKN150
     FM212300 27010KT P6SM SCT070 BKN120 PROB30 2200/2204 -SHRA
      SCT060 BKN080
     FM220400 33011KT P6SM SCT080 BKN150
     FM220700 23010KT P6SM SCT080 BKN150=



000
FTUS45 KBOU 211122
TAFBJC
TAF
KBJC 211122Z 2112/2212 VRB05KT P6SM FEW140 SCT200
     FM211900 08007KT P6SM SCT080 BKN140
     FM212200 28011KT P6SM SCT070 BKN120 PROB30 2123/2203 -SHRA
      SCT060 BKN080
     FM220300 30011KT P6SM SCT070 BKN150=



000
FTUS45 KBOU 211122
TAFAPA
TAF
KAPA 211122Z 2112/2212 20011KT P6SM FEW140
     FM211500 VRB06KT P6SM FEW140 SCT200
     FM211900 15009KT P6SM SCT080 BKN150
     FM220000 29011KT P6SM SCT070 BKN120 PROB30 2200/2204 -SHRA
      SCT060 BKN080
     FM220400 31011KT P6SM SCT080 BKN150
     FM220700 19009KT P6SM SCT080 BKN150=



000
FTUS45 KBOU 211039 AAC
TAFDEN
TAF AMD
KDEN 211039Z 2111/2212 22010KT P6SM FEW120
     FM211500 VRB06KT P6SM FEW140 SCT200
     FM211900 14009KT P6SM SCT080 BKN150
     FM212300 16010KT P6SM SCT070 BKN120 PROB30 2123/2203 -SHRA
      SCT060 BKN080
     FM220300 33011KT P6SM SCT080 BKN150=



000
FTUS45 KBOU 211039 AAC
TAFDEN
TAF AMD
KDEN 211039Z 2111/2212 22010KT P6SM FEW120
     FM211500 VRB06KT P6SM FEW140 SCT200
     FM211900 14009KT P6SM SCT080 BKN150
     FM212300 16010KT P6SM SCT070 BKN120 PROB30 2123/2203 -SHRA
      SCT060 BKN080
     FM220300 33011KT P6SM SCT080 BKN150=



000
FTUS45 KBOU 211039 AAC
TAFDEN
TAF AMD
KDEN 211039Z 2111/2212 22010KT P6SM FEW120
     FM211500 VRB06KT P6SM FEW140 SCT200
     FM211900 14009KT P6SM SCT080 BKN150
     FM212300 16010KT P6SM SCT070 BKN120 PROB30 2123/2203 -SHRA
      SCT060 BKN080
     FM220300 33011KT P6SM SCT080 BKN150=



000
FTUS45 KBOU 211039 AAC
TAFDEN
TAF AMD
KDEN 211039Z 2111/2212 22010KT P6SM FEW120
     FM211500 VRB06KT P6SM FEW140 SCT200
     FM211900 14009KT P6SM SCT080 BKN150
     FM212300 16010KT P6SM SCT070 BKN120 PROB30 2123/2203 -SHRA
      SCT060 BKN080
     FM220300 33011KT P6SM SCT080 BKN150=



000
FTUS45 KBOU 210901 AAB
TAFDEN
TAF AMD
KDEN 210901Z 2109/2212 19016KT P6SM SKC
     FM211300 22010KT P6SM FEW120
     FM211500 VRB06KT P6SM FEW140 SCT200
     FM211900 14009KT P6SM SCT080 BKN150
     FM212300 16010KT P6SM SCT070 BKN120 PROB30 2123/2203 -SHRA
      SCT060 BKN080
     FM220300 33011KT P6SM SCT080 BKN150=



000
FTUS45 KBOU 210725 AAA
TAFDEN
TAF AMD
KDEN 210725Z 2107/2212 19018KT P6SM SKC
     FM210900 20014KT P6SM SKC
     FM211500 VRB06KT P6SM FEW140 SCT200
     FM211900 14009KT P6SM SCT080 BKN150
     FM212300 16010KT P6SM SCT070 BKN120 PROB30 2123/2203 -SHRA
      SCT060 BKN080
     FM220300 33011KT P6SM SCT080 BKN150=



000
FTUS45 KBOU 210725 AAA
TAFDEN
TAF AMD
KDEN 210725Z 2107/2212 19018KT P6SM SKC
     FM210900 20014KT P6SM SKC
     FM211500 VRB06KT P6SM FEW140 SCT200
     FM211900 14009KT P6SM SCT080 BKN150
     FM212300 16010KT P6SM SCT070 BKN120 PROB30 2123/2203 -SHRA
      SCT060 BKN080
     FM220300 33011KT P6SM SCT080 BKN150=



000
FTUS45 KBOU 210525
TAFAPA
TAF
KAPA 210525Z 2106/2206 20011KT P6SM FEW120
     FM210800 22010KT P6SM SKC
     FM211500 VRB06KT P6SM FEW140 SCT200
     FM211900 15009KT P6SM SCT080 BKN150
     FM212300 15006KT P6SM SCT070 BKN120 PROB30 2123/2203 -SHRA
      SCT060 BKN080
     FM220300 31011KT P6SM SCT080 BKN150=



000
FTUS45 KBOU 210525
TAFBJC
TAF
KBJC 210525Z 2106/2206 VRB05KT P6SM SKC
     FM210800 30006KT P6SM SKC
     FM211500 VRB06KT P6SM FEW140 SCT200
     FM211900 08007KT P6SM SCT080 BKN140
     FM212300 14007KT P6SM SCT070 BKN120 PROB30 2123/2202 -SHRA
      SCT060 BKN080
     FM220200 30011KT P6SM SCT070 BKN150=



000
FTUS45 KBOU 210525
TAFDEN
TAF
KDEN 210525Z 2106/2212 19018G28KT P6SM FEW120
     FM210800 22014KT P6SM SKC
     FM211500 VRB06KT P6SM FEW140 SCT200
     FM211900 14009KT P6SM SCT080 BKN150
     FM212300 16010KT P6SM SCT070 BKN120 PROB30 2123/2203 -SHRA
      SCT060 BKN080
     FM220300 33011KT P6SM SCT080 BKN150=



000
FTUS45 KBOU 210525
TAFBJC
TAF
KBJC 210525Z 2106/2206 VRB05KT P6SM SKC
     FM210800 30006KT P6SM SKC
     FM211500 VRB06KT P6SM FEW140 SCT200
     FM211900 08007KT P6SM SCT080 BKN140
     FM212300 14007KT P6SM SCT070 BKN120 PROB30 2123/2202 -SHRA
      SCT060 BKN080
     FM220200 30011KT P6SM SCT070 BKN150=



000
FTUS45 KBOU 210525
TAFAPA
TAF
KAPA 210525Z 2106/2206 20011KT P6SM FEW120
     FM210800 22010KT P6SM SKC
     FM211500 VRB06KT P6SM FEW140 SCT200
     FM211900 15009KT P6SM SCT080 BKN150
     FM212300 15006KT P6SM SCT070 BKN120 PROB30 2123/2203 -SHRA
      SCT060 BKN080
     FM220300 31011KT P6SM SCT080 BKN150=



000
FTUS45 KBOU 210525
TAFDEN
TAF
KDEN 210525Z 2106/2212 19018G28KT P6SM FEW120
     FM210800 22014KT P6SM SKC
     FM211500 VRB06KT P6SM FEW140 SCT200
     FM211900 14009KT P6SM SCT080 BKN150
     FM212300 16010KT P6SM SCT070 BKN120 PROB30 2123/2203 -SHRA
      SCT060 BKN080
     FM220300 33011KT P6SM SCT080 BKN150=



000
FTUS45 KBOU 210259 AAA
TAFAPA
TAF AMD
KAPA 210259Z 2103/2124 18013KT P6SM FEW120
     FM210600 23010KT P6SM SKC
     FM211500 VRB06KT P6SM FEW120 SCT200
     FM211900 14008KT P6SM SCT080 BKN140
     FM212200 17010KT P6SM SCT070 BKN120=



000
FTUS45 KBOU 210259 AAA
TAFAPA
TAF AMD
KAPA 210259Z 2103/2124 18013KT P6SM FEW120
     FM210600 23010KT P6SM SKC
     FM211500 VRB06KT P6SM FEW120 SCT200
     FM211900 14008KT P6SM SCT080 BKN140
     FM212200 17010KT P6SM SCT070 BKN120=



000
FTUS45 KBOU 210259 AAA
TAFDEN
TAF AMD
KDEN 210259Z 2103/2206 18016KT P6SM FEW120
     FM210430 19013KT P6SM SKC
     FM210600 22011KT P6SM SKC
     FM211500 VRB06KT P6SM FEW120 SCT200
     FM211900 14009KT P6SM SCT080 BKN140
     FM212200 16010KT P6SM SCT070 BKN120=



000
FTUS45 KBOU 210259 AAA
TAFBJC
TAF AMD
KBJC 210259Z 2103/2124 24005KT P6SM FEW100
     FM210600 30006KT P6SM SKC
     FM211500 VRB06KT P6SM FEW120 SCT200
     FM211900 10007KT P6SM SCT080 BKN140
     FM212200 14007KT P6SM SCT070 BKN120=



000
FTUS45 KBOU 210259 AAA
TAFDEN
TAF AMD
KDEN 210259Z 2103/2206 18016KT P6SM FEW120
     FM210430 19013KT P6SM SKC
     FM210600 22011KT P6SM SKC
     FM211500 VRB06KT P6SM FEW120 SCT200
     FM211900 14009KT P6SM SCT080 BKN140
     FM212200 16010KT P6SM SCT070 BKN120=



000
FTUS45 KBOU 210259 AAA
TAFDEN
TAF AMD
KDEN 210259Z 2103/2206 18016KT P6SM FEW120
     FM210430 19013KT P6SM SKC
     FM210600 22011KT P6SM SKC
     FM211500 VRB06KT P6SM FEW120 SCT200
     FM211900 14009KT P6SM SCT080 BKN140
     FM212200 16010KT P6SM SCT070 BKN120=



000
FTUS45 KBOU 210259 AAA
TAFAPA
TAF AMD
KAPA 210259Z 2103/2124 18013KT P6SM FEW120
     FM210600 23010KT P6SM SKC
     FM211500 VRB06KT P6SM FEW120 SCT200
     FM211900 14008KT P6SM SCT080 BKN140
     FM212200 17010KT P6SM SCT070 BKN120=



000
FTUS45 KBOU 210259 AAA
TAFAPA
TAF AMD
KAPA 210259Z 2103/2124 18013KT P6SM FEW120
     FM210600 23010KT P6SM SKC
     FM211500 VRB06KT P6SM FEW120 SCT200
     FM211900 14008KT P6SM SCT080 BKN140
     FM212200 17010KT P6SM SCT070 BKN120=



000
FTUS45 KBOU 210259 AAA
TAFBJC
TAF AMD
KBJC 210259Z 2103/2124 24005KT P6SM FEW100
     FM210600 30006KT P6SM SKC
     FM211500 VRB06KT P6SM FEW120 SCT200
     FM211900 10007KT P6SM SCT080 BKN140
     FM212200 14007KT P6SM SCT070 BKN120=



000
FTUS45 KBOU 210259 AAA
TAFDEN
TAF AMD
KDEN 210259Z 2103/2206 18016KT P6SM FEW120
     FM210430 19013KT P6SM SKC
     FM210600 22011KT P6SM SKC
     FM211500 VRB06KT P6SM FEW120 SCT200
     FM211900 14009KT P6SM SCT080 BKN140
     FM212200 16010KT P6SM SCT070 BKN120=



000
FTUS45 KBOU 202336
TAFDEN
TAF
KDEN 202336Z 2100/2206 16014G25KT P6SM FEW100 SCT200
     FM210300 19013KT P6SM FEW200
     FM210600 22011KT P6SM SCT200
     FM211500 VRB06KT P6SM FEW120 SCT200
     FM211900 14009KT P6SM SCT080 BKN140
     FM212200 16010KT P6SM SCT070 BKN120=



000
FTUS45 KBOU 202336
TAFBJC
TAF
KBJC 202336Z 2100/2124 14012KT P6SM SCT080 SCT200
     FM210300 24007KT P6SM FEW100 SCT200
     FM210600 30006KT P6SM SCT200
     FM211500 VRB06KT P6SM FEW120 SCT200
     FM211900 10007KT P6SM SCT080 BKN140
     FM212200 14007KT P6SM SCT070 BKN120=



000
FTUS45 KBOU 202336
TAFAPA
TAF
KAPA 202336Z 2100/2124 17015G28KT P6SM FEW100 SCT200
     FM210300 18012KT P6SM FEW200
     FM210600 23010KT P6SM SCT200
     FM211500 VRB06KT P6SM FEW120 SCT200
     FM211900 14008KT P6SM SCT080 BKN140
     FM212200 17010KT P6SM SCT070 BKN120=



000
FTUS45 KBOU 202336
TAFAPA
TAF
KAPA 202336Z 2100/2124 17015G28KT P6SM FEW100 SCT200
     FM210300 18012KT P6SM FEW200
     FM210600 23010KT P6SM SCT200
     FM211500 VRB06KT P6SM FEW120 SCT200
     FM211900 14008KT P6SM SCT080 BKN140
     FM212200 17010KT P6SM SCT070 BKN120=



000
FTUS45 KBOU 202336
TAFBJC
TAF
KBJC 202336Z 2100/2124 14012KT P6SM SCT080 SCT200
     FM210300 24007KT P6SM FEW100 SCT200
     FM210600 30006KT P6SM SCT200
     FM211500 VRB06KT P6SM FEW120 SCT200
     FM211900 10007KT P6SM SCT080 BKN140
     FM212200 14007KT P6SM SCT070 BKN120=



000
FTUS45 KBOU 202336
TAFDEN
TAF
KDEN 202336Z 2100/2206 16014G25KT P6SM FEW100 SCT200
     FM210300 19013KT P6SM FEW200
     FM210600 22011KT P6SM SCT200
     FM211500 VRB06KT P6SM FEW120 SCT200
     FM211900 14009KT P6SM SCT080 BKN140
     FM212200 16010KT P6SM SCT070 BKN120=



000
FTUS45 KBOU 202101 AAA
TAFDEN
TAF AMD
KDEN 202101Z 2021/2124 16012G20KT P6SM FEW120 SCT220
     FM210300 18012KT P6SM SCT220
     FM210600 20010KT P6SM FEW200
     FM211400 22008KT P6SM FEW100 BKN140
     FM211900 17007KT P6SM SCT080 BKN120=



000
FTUS45 KBOU 202101 AAA
TAFDEN
TAF AMD
KDEN 202101Z 2021/2124 16012G20KT P6SM FEW120 SCT220
     FM210300 18012KT P6SM SCT220
     FM210600 20010KT P6SM FEW200
     FM211400 22008KT P6SM FEW100 BKN140
     FM211900 17007KT P6SM SCT080 BKN120=



000
FTUS45 KBOU 201727
TAFAPA
TAF
KAPA 201727Z 2018/2118 19008KT P6SM FEW120
     FM201900 17012G22KT P6SM FEW120 SCT220
     FM210300 18012KT P6SM SCT220
     FM210600 20010KT P6SM FEW200
     FM211000 21006KT P6SM FEW100 BKN140=



000
FTUS45 KBOU 201727
TAFDEN
TAF
KDEN 201727Z 2018/2124 18011KT P6SM FEW120
     FM202000 16014G21KT P6SM FEW120 SCT220
     FM210300 18012KT P6SM SCT220
     FM210600 20010KT P6SM FEW200
     FM211400 22008KT P6SM FEW100 BKN140
     FM211900 17007KT P6SM SCT080 BKN120=



000
FTUS45 KBOU 201727
TAFAPA
TAF
KAPA 201727Z 2018/2118 19008KT P6SM FEW120
     FM201900 17012G22KT P6SM FEW120 SCT220
     FM210300 18012KT P6SM SCT220
     FM210600 20010KT P6SM FEW200
     FM211000 21006KT P6SM FEW100 BKN140=



000
FTUS45 KBOU 201727
TAFDEN
TAF
KDEN 201727Z 2018/2124 18011KT P6SM FEW120
     FM202000 16014G21KT P6SM FEW120 SCT220
     FM210300 18012KT P6SM SCT220
     FM210600 20010KT P6SM FEW200
     FM211400 22008KT P6SM FEW100 BKN140
     FM211900 17007KT P6SM SCT080 BKN120=



000
FTUS45 KBOU 201727
TAFBJC
TAF
KBJC 201727Z 2018/2118 14003KT P6SM FEW120
     FM201900 10008KT P6SM FEW120 SCT220
     FM210200 24005KT P6SM FEW200
     FM210500 28008KT P6SM FEW140 SCT200
     FM211300 VRB03KT P6SM FEW100 BKN140=



000
FTUS45 KBOU 201727
TAFBJC
TAF
KBJC 201727Z 2018/2118 14003KT P6SM FEW120
     FM201900 10008KT P6SM FEW120 SCT220
     FM210200 24005KT P6SM FEW200
     FM210500 28008KT P6SM FEW140 SCT200
     FM211300 VRB03KT P6SM FEW100 BKN140=



000
FTUS45 KBOU 201456 AAA
TAFDEN
TAF AMD
KDEN 201456Z 2015/2118 21006KT P6SM SKC
     FM201700 19008KT P6SM FEW220
     FM202000 16014KT P6SM FEW120 SCT220
     FM210300 18012KT P6SM SCT220
     FM210600 20010KT P6SM FEW140 SCT200
     FM211400 22008KT P6SM SCT090 BKN140=



000
FTUS45 KBOU 201456 AAA
TAFDEN
TAF AMD
KDEN 201456Z 2015/2118 21006KT P6SM SKC
     FM201700 19008KT P6SM FEW220
     FM202000 16014KT P6SM FEW120 SCT220
     FM210300 18012KT P6SM SCT220
     FM210600 20010KT P6SM FEW140 SCT200
     FM211400 22008KT P6SM SCT090 BKN140=



000
FTUS45 KBOU 201120
TAFBJC
TAF
KBJC 201120Z 2012/2112 VRB03KT P6SM FEW200
     FM201500 33006KT P6SM FEW220
     FM201800 10008KT P6SM FEW120 SCT220
     FM210300 VRB05KT P6SM SCT220
     FM210600 24008KT P6SM FEW140 SCT200=



000
FTUS45 KBOU 201120
TAFAPA
TAF
KAPA 201120Z 2012/2112 19005KT P6SM FEW200
     FM201500 17008KT P6SM FEW220
     FM201800 15012KT P6SM FEW120 SCT220
     FM210300 17012KT P6SM SCT220
     FM210600 20010KT P6SM FEW140 SCT200=



000
FTUS45 KBOU 201120
TAFDEN
TAF
KDEN 201120Z 2012/2118 23009KT P6SM FEW200
     FM201500 19006KT P6SM FEW220
     FM201800 14014KT P6SM FEW120 SCT220
     FM210300 18012KT P6SM SCT220
     FM210600 20010KT P6SM FEW140 SCT200
     FM211400 22008KT P6SM SCT090 BKN140=



000
FTUS45 KBOU 201120
TAFAPA
TAF
KAPA 201120Z 2012/2112 19005KT P6SM FEW200
     FM201500 17008KT P6SM FEW220
     FM201800 15012KT P6SM FEW120 SCT220
     FM210300 17012KT P6SM SCT220
     FM210600 20010KT P6SM FEW140 SCT200=



000
FTUS45 KBOU 201120
TAFBJC
TAF
KBJC 201120Z 2012/2112 VRB03KT P6SM FEW200
     FM201500 33006KT P6SM FEW220
     FM201800 10008KT P6SM FEW120 SCT220
     FM210300 VRB05KT P6SM SCT220
     FM210600 24008KT P6SM FEW140 SCT200=



000
FTUS45 KBOU 201120
TAFDEN
TAF
KDEN 201120Z 2012/2118 23009KT P6SM FEW200
     FM201500 19006KT P6SM FEW220
     FM201800 14014KT P6SM FEW120 SCT220
     FM210300 18012KT P6SM SCT220
     FM210600 20010KT P6SM FEW140 SCT200
     FM211400 22008KT P6SM SCT090 BKN140=



000
FTUS45 KBOU 201039 AAB
TAFDEN
TAF AMD
KDEN 201039Z 2011/2112 24009KT P6SM FEW200
     FM201500 VRB06KT P6SM FEW220
     FM201800 17010KT P6SM FEW120 SCT220
     FM210300 20010KT P6SM SCT220=



000
FTUS45 KBOU 201039 AAB
TAFDEN
TAF AMD
KDEN 201039Z 2011/2112 24009KT P6SM FEW200
     FM201500 VRB06KT P6SM FEW220
     FM201800 17010KT P6SM FEW120 SCT220
     FM210300 20010KT P6SM SCT220=



    US Dept of Commerce
    National Oceanic and Atmospheric Administration
    National Weather Service
    1325 East West Highway
    Silver Spring, MD 20910
    Page Author: NWS Internet Services Team
Disclaimer
Information Quality
Credits
Glossary
Privacy Policy
Freedom of Information Act (FOIA)
About Us
Career Opportunities